createdAt,value
2018-07-22T00:01:36.943Z,38.83
2018-07-22T00:04:05.386Z,36.47
2018-07-22T00:06:33.626Z,42.10
2018-07-22T00:09:01.872Z,40.90
2018-07-22T00:11:30.252Z,42.03
2018-07-22T00:13:58.516Z,47.33
2018-07-22T00:16:26.723Z,54.83
2018-07-22T00:18:54.958Z,57.23
2018-07-22T00:21:23.170Z,75.23
2018-07-22T00:23:51.458Z,48.80
2018-07-22T00:26:19.679Z,62.97
2018-07-22T00:28:47.911Z,55.03
2018-07-22T00:31:16.153Z,62.00
2018-07-22T00:33:45.420Z,47.97
2018-07-22T00:36:13.659Z,46.80
2018-07-22T00:38:41.891Z,127.30
2018-07-22T00:41:10.122Z,118.07
2018-07-22T00:43:38.356Z,167.00
2018-07-22T00:46:06.626Z,185.60
2018-07-22T00:48:34.903Z,177.00
2018-07-22T00:51:03.144Z,140.37
2018-07-22T00:53:31.472Z,188.40
2018-07-22T00:55:59.723Z,191.13
2018-07-22T00:58:28.011Z,167.13
2018-07-22T01:00:56.222Z,133.93
2018-07-22T01:03:24.466Z,126.00
2018-07-22T01:05:52.676Z,89.57
2018-07-22T01:08:20.938Z,124.07
2018-07-22T01:10:49.206Z,121.47
2018-07-22T01:13:17.418Z,61.07
2018-07-22T01:15:45.667Z,55.77
2018-07-22T01:18:13.882Z,45.73
2018-07-22T01:20:42.119Z,42.60
2018-07-22T01:23:10.338Z,62.13
2018-07-22T01:25:38.866Z,51.67
2018-07-22T01:28:07.223Z,78.97
2018-07-22T01:30:35.450Z,119.80
2018-07-22T01:33:03.705Z,98.17
2018-07-22T01:35:31.922Z,81.07
2018-07-22T01:38:00.150Z,68.17
2018-07-22T01:40:28.365Z,83.53
2018-07-22T01:42:56.635Z,54.10
2018-07-22T01:45:24.856Z,89.57
2018-07-22T01:47:53.070Z,102.67
2018-07-22T01:50:21.306Z,44.07
2018-07-22T01:52:49.527Z,51.73
2018-07-22T01:55:17.783Z,50.63
2018-07-22T01:57:46.019Z,42.27
2018-07-22T02:00:14.298Z,33.70
2018-07-22T02:02:42.526Z,40.20
2018-07-22T02:05:10.758Z,38.17
2018-07-22T02:07:38.978Z,33.90
2018-07-22T02:10:07.209Z,43.23
2018-07-22T02:12:35.432Z,32.97
2018-07-22T02:15:04.147Z,34.20
2018-07-22T02:17:32.363Z,31.90
2018-07-22T02:20:00.590Z,40.53
2018-07-22T02:22:28.817Z,29.83
2018-07-22T02:24:57.081Z,35.63
2018-07-22T02:27:25.310Z,34.40
2018-07-22T02:29:53.533Z,36.37
2018-07-22T02:32:21.740Z,36.97
2018-07-22T02:34:49.990Z,51.33
2018-07-22T02:37:18.202Z,33.60
2018-07-22T02:39:46.442Z,41.00
2018-07-22T02:42:14.651Z,45.23
2018-07-22T02:44:42.854Z,30.57
2018-07-22T02:47:11.074Z,30.80
2018-07-22T02:49:39.294Z,31.13
2018-07-22T02:52:07.547Z,32.17
2018-07-22T02:54:35.767Z,27.80
2018-07-22T02:57:04.035Z,30.43
2018-07-22T02:59:32.254Z,30.97
2018-07-22T03:02:00.472Z,30.80
2018-07-22T03:04:28.720Z,37.63
2018-07-22T03:06:56.996Z,42.77
2018-07-22T03:09:25.220Z,34.00
2018-07-22T03:11:53.432Z,36.23
2018-07-22T03:14:21.647Z,27.40
2018-07-22T03:16:49.856Z,29.47
2018-07-22T03:19:18.055Z,27.53
2018-07-22T03:21:46.358Z,35.23
2018-07-22T03:24:14.635Z,39.17
2018-07-22T03:26:42.870Z,28.73
2018-07-22T03:29:11.090Z,42.03
2018-07-22T03:31:39.350Z,34.77
2018-07-22T03:34:07.718Z,47.27
2018-07-22T03:36:35.934Z,36.07
2018-07-22T03:39:05.877Z,31.43
2018-07-22T03:41:34.150Z,31.50
2018-07-22T03:44:02.363Z,34.60
2018-07-22T03:46:30.586Z,53.07
2018-07-22T03:48:58.802Z,33.50
2018-07-22T03:51:27.010Z,38.57
2018-07-22T03:53:55.234Z,34.73
2018-07-22T03:56:23.446Z,49.37
2018-07-22T03:58:51.707Z,51.27
2018-07-22T04:01:19.951Z,67.00
2018-07-22T04:03:48.155Z,70.03
2018-07-22T04:06:16.378Z,70.67
2018-07-22T04:08:44.631Z,81.83
2018-07-22T04:11:12.854Z,92.93
2018-07-22T04:13:41.130Z,72.63
2018-07-22T04:16:09.356Z,98.80
2018-07-22T04:18:54.306Z,52.87
2018-07-22T04:21:24.571Z,69.53
2018-07-22T04:23:52.750Z,63.53
2018-07-22T04:26:21.722Z,52.03
2018-07-22T04:28:50.523Z,58.90
2018-07-22T04:31:18.826Z,70.43
2018-07-22T04:33:47.046Z,86.60
2018-07-22T04:36:15.266Z,90.73
2018-07-22T04:38:43.486Z,93.67
2018-07-22T04:41:11.694Z,111.10
2018-07-22T04:43:39.939Z,86.77
2018-07-22T04:46:08.160Z,60.90
2018-07-22T04:48:36.400Z,73.03
2018-07-22T04:51:04.627Z,49.27
2018-07-22T04:53:32.905Z,51.23
2018-07-22T04:56:01.147Z,39.30
2018-07-22T04:58:29.401Z,41.67
2018-07-22T05:00:57.639Z,34.93
2018-07-22T05:03:25.863Z,30.90
2018-07-22T05:05:54.065Z,36.20
2018-07-22T05:08:22.271Z,42.43
2018-07-22T05:10:50.510Z,29.40
2018-07-22T05:13:18.746Z,34.73
2018-07-22T05:15:46.958Z,32.43
2018-07-22T05:18:15.192Z,30.33
2018-07-22T05:20:43.451Z,25.00
2018-07-22T05:23:11.670Z,26.80
2018-07-22T05:25:39.890Z,33.23
2018-07-22T05:28:08.102Z,34.23
2018-07-22T05:30:36.337Z,29.80
2018-07-22T05:33:04.591Z,33.50
2018-07-22T05:35:32.790Z,31.23
2018-07-22T05:38:01.031Z,26.13
2018-07-22T05:40:29.282Z,32.47
2018-07-22T05:42:57.499Z,38.07
2018-07-22T05:45:25.730Z,37.53
2018-07-22T05:47:53.939Z,29.93
2018-07-22T05:50:22.186Z,29.97
2018-07-22T05:52:50.426Z,37.90
2018-07-22T05:55:18.634Z,32.73
2018-07-22T05:57:46.858Z,33.40
2018-07-22T06:00:15.128Z,34.20
2018-07-22T06:02:43.397Z,34.43
2018-07-22T06:05:11.734Z,27.63
2018-07-22T06:07:40.032Z,28.80
2018-07-22T06:10:08.415Z,25.73
2018-07-22T06:12:36.757Z,29.23
2018-07-22T06:15:06.638Z,30.63
2018-07-22T06:17:34.924Z,28.13
2018-07-22T06:20:03.447Z,33.17
2018-07-22T06:22:31.670Z,40.97
2018-07-22T06:24:59.911Z,29.30
2018-07-22T06:27:28.214Z,34.00
2018-07-22T06:29:56.440Z,27.63
2018-07-22T06:32:24.713Z,25.23
2018-07-22T06:34:52.922Z,23.57
2018-07-22T06:37:21.154Z,31.40
2018-07-22T06:39:49.378Z,30.77
2018-07-22T06:42:17.631Z,30.10
2018-07-22T06:44:45.859Z,30.50
2018-07-22T06:47:14.086Z,26.73
2018-07-22T06:49:42.363Z,31.40
2018-07-22T06:52:10.591Z,31.00
2018-07-22T06:54:38.819Z,33.00
2018-07-22T06:57:07.147Z,31.87
2018-07-22T06:59:35.379Z,39.93
2018-07-22T07:02:03.630Z,32.43
2018-07-22T07:04:31.906Z,31.60
2018-07-22T07:07:00.124Z,31.73
2018-07-22T07:09:28.375Z,28.70
2018-07-22T07:11:56.647Z,30.37
2018-07-22T07:14:24.862Z,31.03
2018-07-22T07:16:53.092Z,29.00
2018-07-22T07:19:21.338Z,30.80
2018-07-22T07:21:49.555Z,30.20
2018-07-22T07:24:17.834Z,27.27
2018-07-22T07:26:46.165Z,28.40
2018-07-22T07:29:14.307Z,36.07
2018-07-22T07:31:42.540Z,30.07
2018-07-22T07:34:10.776Z,33.83
2018-07-22T07:36:39.034Z,36.57
2018-07-22T07:39:09.071Z,32.20
2018-07-22T07:41:37.455Z,27.17
2018-07-22T07:44:05.670Z,35.30
2018-07-22T07:46:33.897Z,36.60
2018-07-22T07:49:02.334Z,29.27
2018-07-22T07:51:30.807Z,32.77
2018-07-22T07:53:59.134Z,33.47
2018-07-22T07:56:27.355Z,36.27
2018-07-22T07:58:55.580Z,30.90
2018-07-22T08:01:23.987Z,37.63
2018-07-22T08:03:52.520Z,30.47
2018-07-22T08:06:20.775Z,31.43
2018-07-22T08:08:49.131Z,34.17
2018-07-22T08:11:17.800Z,31.17
2018-07-22T08:13:46.027Z,32.10
2018-07-22T08:16:14.239Z,31.40
2018-07-22T08:18:42.470Z,35.97
2018-07-22T08:21:11.457Z,33.53
2018-07-22T08:23:39.707Z,52.17
2018-07-22T08:26:08.034Z,35.70
2018-07-22T08:28:47.662Z,38.67
2018-07-22T08:31:15.909Z,39.47
2018-07-22T08:33:44.111Z,34.87
2018-07-22T08:36:12.660Z,35.93
2018-07-22T08:38:41.227Z,36.43
2018-07-22T08:41:09.673Z,34.20
2018-07-22T08:43:37.879Z,49.13
2018-07-22T08:46:06.415Z,35.63
2018-07-22T08:48:34.940Z,29.87
2018-07-22T08:51:03.254Z,36.10
2018-07-22T08:53:31.466Z,34.30
2018-07-22T08:55:59.735Z,44.00
2018-07-22T08:58:28.491Z,35.37
2018-07-22T09:00:56.698Z,35.10
2018-07-22T09:03:25.024Z,32.80
2018-07-22T09:05:53.543Z,34.97
2018-07-22T09:08:22.023Z,30.47
2018-07-22T09:10:51.669Z,36.93
2018-07-22T09:13:20.879Z,30.73
2018-07-22T09:15:49.155Z,34.83
2018-07-22T09:18:17.398Z,30.00
2018-07-22T09:20:45.754Z,30.37
2018-07-22T09:23:13.999Z,34.20
2018-07-22T09:25:42.261Z,32.57
2018-07-22T09:28:10.506Z,31.07
2018-07-22T09:30:38.737Z,33.50
2018-07-22T09:33:06.943Z,29.20
2018-07-22T09:35:35.167Z,31.50
2018-07-22T09:38:03.387Z,30.37
2018-07-22T09:40:31.615Z,31.57
2018-07-22T09:42:59.902Z,31.70
2018-07-22T09:45:28.126Z,29.43
2018-07-22T09:47:56.335Z,29.80
2018-07-22T09:50:24.574Z,28.13
2018-07-22T09:52:52.790Z,28.63
2018-07-22T09:55:21.100Z,28.73
2018-07-22T09:57:49.310Z,26.03
2018-07-22T10:00:22.808Z,22.27
2018-07-22T10:02:51.034Z,24.80
2018-07-22T10:05:19.246Z,24.30
2018-07-22T10:07:47.506Z,24.87
2018-07-22T10:10:15.770Z,27.23
2018-07-22T10:12:43.990Z,24.10
2018-07-22T10:15:12.226Z,24.87
2018-07-22T10:17:40.898Z,23.83
2018-07-22T10:20:09.183Z,29.30
2018-07-22T10:22:37.440Z,25.20
2018-07-22T10:25:05.767Z,29.83
2018-07-22T10:27:34.051Z,25.73
2018-07-22T10:30:02.288Z,26.73
2018-07-22T10:32:30.571Z,21.50
2018-07-22T10:34:58.773Z,24.40
2018-07-22T10:37:27.010Z,23.73
2018-07-22T10:39:55.258Z,25.77
2018-07-22T10:42:23.475Z,29.70
2018-07-22T10:44:52.239Z,23.13
2018-07-22T10:47:20.452Z,25.20
2018-07-22T10:49:48.781Z,23.27
2018-07-22T10:52:17.310Z,23.97
2018-07-22T10:54:45.564Z,24.10
2018-07-22T10:57:13.804Z,22.70
2018-07-22T11:02:44.215Z,24.33
2018-07-22T11:05:13.680Z,23.63
2018-07-22T11:07:41.900Z,24.20
2018-07-22T11:10:10.177Z,21.43
2018-07-22T11:12:38.389Z,24.57
2018-07-22T11:15:07.171Z,23.70
2018-07-22T11:17:35.415Z,28.73
2018-07-22T11:20:03.655Z,25.40
2018-07-22T11:22:31.948Z,21.60
2018-07-22T11:25:00.299Z,21.60
2018-07-22T11:27:28.540Z,24.00
2018-07-22T11:29:56.773Z,25.20
2018-07-22T11:32:25.011Z,24.30
2018-07-22T11:34:53.222Z,27.10
2018-07-22T11:37:21.486Z,25.37
2018-07-22T11:39:49.711Z,25.43
2018-07-22T11:42:17.962Z,24.20
2018-07-22T11:44:46.182Z,29.57
2018-07-22T11:47:14.414Z,25.40
2018-07-22T11:49:42.636Z,27.00
2018-07-22T11:52:10.855Z,28.30
2018-07-22T11:54:39.111Z,29.50
2018-07-22T11:57:07.353Z,31.33
2018-07-22T11:59:35.575Z,28.27
2018-07-22T12:02:03.918Z,25.60
2018-07-22T12:04:32.135Z,27.47
2018-07-22T12:07:00.395Z,25.73
2018-07-22T12:09:28.623Z,26.33
2018-07-22T12:11:56.833Z,26.40
2018-07-22T12:14:25.050Z,31.50
2018-07-22T12:16:53.280Z,26.20
2018-07-22T12:19:21.502Z,26.93
2018-07-22T12:21:49.790Z,29.77
2018-07-22T12:24:18.023Z,29.73
2018-07-22T12:26:46.251Z,31.20
2018-07-22T12:29:14.584Z,31.03
2018-07-22T12:31:42.863Z,32.70
2018-07-22T12:34:11.107Z,29.20
2018-07-22T12:36:39.288Z,36.20
2018-07-22T12:39:09.525Z,28.80
2018-07-22T12:41:37.767Z,30.00
2018-07-22T12:44:05.995Z,31.30
2018-07-22T12:46:34.313Z,33.87
2018-07-22T12:49:02.523Z,33.00
2018-07-22T12:51:30.764Z,36.90
2018-07-22T12:53:59.031Z,35.00
2018-07-22T12:56:27.274Z,39.90
2018-07-22T12:58:55.498Z,37.43
2018-07-22T13:01:23.740Z,43.67
2018-07-22T13:03:51.962Z,47.73
2018-07-22T13:06:20.438Z,38.30
2018-07-22T13:08:48.787Z,40.63
2018-07-22T13:11:17.058Z,38.10
2018-07-22T13:13:45.291Z,47.47
2018-07-22T13:16:13.498Z,44.33
2018-07-22T13:18:41.775Z,44.70
2018-07-22T13:21:10.008Z,39.50
2018-07-22T13:23:38.226Z,47.97
2018-07-22T13:26:06.458Z,45.87
2018-07-22T13:28:35.961Z,48.50
2018-07-22T13:31:05.142Z,56.83
2018-07-22T13:33:33.480Z,54.90
2018-07-22T13:36:01.806Z,58.20
2018-07-22T13:38:30.306Z,63.60
2018-07-22T13:40:58.553Z,101.57
2018-07-22T13:43:26.802Z,53.20
2018-07-22T13:45:55.051Z,89.83
2018-07-22T13:48:23.347Z,66.77
2018-07-22T13:50:51.607Z,40.70
2018-07-22T13:53:19.831Z,39.63
2018-07-22T13:55:48.071Z,34.20
2018-07-22T13:58:16.311Z,33.40
2018-07-22T14:00:44.571Z,46.87
2018-07-22T14:03:12.851Z,40.30
2018-07-22T14:05:41.136Z,48.37
2018-07-22T14:08:09.387Z,53.40
2018-07-22T14:10:37.624Z,51.53
2018-07-22T14:13:06.043Z,60.33
2018-07-22T14:15:34.445Z,54.60
2018-07-22T14:18:02.617Z,50.63
2018-07-22T14:20:30.881Z,55.50
2018-07-22T14:22:59.119Z,62.00
2018-07-22T14:25:27.355Z,69.97
2018-07-22T14:27:55.642Z,67.90
2018-07-22T14:30:23.882Z,59.90
2018-07-22T14:32:52.123Z,70.17
2018-07-22T14:35:20.448Z,71.80
2018-07-22T14:37:48.707Z,62.27
2018-07-22T14:40:16.982Z,55.37
2018-07-22T14:42:46.923Z,55.57
2018-07-22T14:45:15.183Z,63.30
2018-07-22T14:47:43.436Z,62.33
2018-07-22T14:50:11.692Z,59.53
2018-07-22T14:52:39.928Z,70.13
2018-07-22T14:55:08.151Z,59.87
2018-07-22T14:57:36.396Z,76.00
2018-07-22T15:00:04.963Z,79.33
2018-07-22T15:02:33.209Z,67.90
2018-07-22T15:05:01.495Z,55.50
2018-07-22T15:07:29.759Z,59.23
2018-07-22T15:09:58.011Z,57.60
2018-07-22T15:12:26.259Z,52.47
2018-07-22T15:14:54.522Z,52.80
2018-07-22T15:17:22.763Z,55.37
2018-07-22T15:19:50.962Z,53.27
2018-07-22T15:22:19.278Z,47.47
2018-07-22T15:24:47.495Z,53.20
2018-07-22T15:27:15.734Z,46.53
2018-07-22T15:29:43.968Z,64.23
2018-07-22T15:32:12.551Z,49.90
2018-07-22T15:34:41.161Z,64.07
2018-07-22T15:37:09.502Z,63.13
2018-07-22T15:39:37.719Z,74.43
2018-07-22T15:42:05.975Z,98.07
2018-07-22T15:44:34.260Z,76.20
2018-07-22T15:47:02.476Z,72.33
2018-07-22T15:49:30.747Z,76.63
2018-07-22T15:51:58.981Z,72.27
2018-07-22T15:54:27.216Z,68.83
2018-07-22T15:56:55.476Z,74.70
2018-07-22T15:59:23.843Z,69.47
2018-07-22T16:01:52.078Z,66.80
2018-07-22T16:04:20.435Z,64.10
2018-07-22T16:06:48.784Z,62.00
2018-07-22T16:09:17.015Z,47.57
2018-07-22T16:11:45.258Z,51.80
2018-07-22T16:14:13.495Z,51.07
2018-07-22T16:16:41.742Z,52.73
2018-07-22T16:19:10.013Z,50.37
2018-07-22T16:21:38.253Z,49.33
2018-07-22T16:24:06.540Z,47.67
2018-07-22T16:26:34.770Z,49.80
2018-07-22T16:29:03.024Z,51.00
2018-07-22T16:31:31.286Z,48.73
2018-07-22T16:33:59.502Z,48.00
2018-07-22T16:36:27.800Z,40.57
2018-07-22T16:38:56.035Z,42.97
2018-07-22T16:41:24.290Z,42.60
2018-07-22T16:43:52.522Z,45.60
2018-07-22T16:46:20.789Z,46.67
2018-07-22T16:48:49.002Z,44.63
2018-07-22T16:51:17.243Z,43.23
2018-07-22T16:53:45.552Z,51.33
2018-07-22T16:56:13.755Z,53.97
2018-07-22T16:58:41.995Z,55.83
2018-07-22T17:01:10.262Z,50.27
2018-07-22T17:03:38.504Z,47.83
2018-07-22T17:06:06.735Z,52.80
2018-07-22T17:08:34.991Z,55.17
2018-07-22T17:11:03.258Z,60.23
2018-07-22T17:13:31.529Z,58.97
2018-07-22T17:15:59.752Z,60.50
2018-07-22T17:18:28.291Z,59.10
2018-07-22T17:20:56.667Z,52.40
2018-07-22T17:23:25.103Z,52.53
2018-07-22T17:25:53.787Z,66.53
2018-07-22T17:28:22.018Z,53.30
2018-07-22T17:30:50.264Z,56.63
2018-07-22T17:33:18.509Z,51.00
2018-07-22T17:35:46.730Z,51.03
2018-07-22T17:38:14.959Z,60.40
2018-07-22T17:40:43.254Z,56.10
2018-07-22T17:43:11.462Z,64.27
2018-07-22T17:45:39.707Z,53.63
2018-07-22T17:48:07.931Z,58.73
2018-07-22T17:50:36.155Z,55.83
2018-07-22T17:53:04.479Z,73.93
2018-07-22T17:55:32.692Z,62.17
2018-07-22T17:58:00.903Z,60.43
2018-07-22T18:00:29.165Z,60.87
2018-07-22T18:03:07.664Z,67.90
2018-07-22T18:05:35.970Z,67.60
2018-07-22T18:08:04.247Z,73.50
2018-07-22T18:10:32.493Z,63.07
2018-07-22T18:13:00.756Z,59.20
2018-07-22T18:15:29.006Z,64.80
2018-07-22T18:17:57.338Z,70.50
2018-07-22T18:20:25.506Z,74.17
2018-07-22T18:22:53.778Z,79.57
2018-07-22T18:25:22.011Z,66.23
2018-07-22T18:27:50.259Z,60.93
2018-07-22T18:30:18.514Z,61.07
2018-07-22T18:32:47.149Z,75.87
2018-07-22T18:35:15.398Z,54.83
2018-07-22T18:37:43.912Z,52.47
2018-07-22T18:40:12.306Z,46.10
2018-07-22T18:42:40.659Z,55.27
2018-07-22T18:45:08.947Z,62.00
2018-07-22T18:47:37.525Z,47.40
2018-07-22T18:50:05.838Z,55.83
2018-07-22T18:52:34.115Z,45.37
2018-07-22T18:55:02.400Z,53.63
2018-07-22T18:57:30.755Z,49.27
2018-07-22T18:59:59.162Z,60.27
2018-07-22T19:02:27.765Z,57.30
2018-07-22T19:04:56.015Z,53.23
2018-07-22T19:07:24.295Z,56.53
2018-07-22T19:09:52.640Z,53.97
2018-07-22T19:12:20.888Z,54.43
2018-07-22T19:14:49.214Z,50.23
2018-07-22T19:17:17.517Z,51.90
2018-07-22T19:19:45.898Z,62.43
2018-07-22T19:22:14.051Z,69.97
2018-07-22T19:24:42.361Z,83.63
2018-07-22T19:27:11.029Z,73.60
2018-07-22T19:29:39.486Z,64.23
2018-07-22T19:32:08.271Z,64.83
2018-07-22T19:34:36.633Z,62.33
2018-07-22T19:37:05.020Z,58.57
2018-07-22T19:39:36.990Z,63.77
2018-07-22T19:42:05.511Z,81.00
2018-07-22T19:44:33.755Z,64.47
2018-07-22T19:47:01.998Z,116.00
2018-07-22T19:49:30.235Z,70.40
2018-07-22T19:51:58.493Z,100.57
2018-07-22T19:54:26.751Z,114.33
2018-07-22T19:56:54.987Z,167.67
2018-07-22T19:59:23.223Z,114.40
2018-07-22T20:01:51.455Z,102.13
2018-07-22T20:04:19.686Z,108.97
2018-07-22T20:06:47.939Z,143.73
2018-07-22T20:09:16.176Z,103.97
2018-07-22T20:11:44.423Z,73.43
2018-07-22T20:14:12.659Z,65.57
2018-07-22T20:16:40.907Z,77.50
2018-07-22T20:19:09.122Z,85.10
2018-07-22T20:21:37.350Z,88.50
2018-07-22T20:24:05.683Z,107.33
2018-07-22T20:26:33.887Z,133.60
2018-07-22T20:29:02.157Z,137.63
2018-07-22T20:31:31.259Z,92.47
2018-07-22T20:33:59.467Z,82.10
2018-07-22T20:36:27.691Z,79.40
2018-07-22T20:38:55.974Z,73.37
2018-07-22T20:41:24.210Z,66.67
2018-07-22T20:43:52.460Z,64.57
2018-07-22T20:46:20.711Z,85.73
2018-07-22T20:48:48.943Z,71.20
2018-07-22T20:51:17.191Z,77.17
2018-07-22T20:53:45.441Z,73.23
2018-07-22T20:56:13.725Z,78.43
2018-07-22T20:58:41.928Z,68.37
2018-07-22T21:01:10.166Z,77.93
2018-07-22T21:03:38.395Z,77.20
2018-07-22T21:06:06.599Z,79.27
2018-07-22T21:08:34.848Z,64.07
2018-07-22T21:11:03.071Z,71.87
2018-07-22T21:13:31.311Z,71.03
2018-07-22T21:15:59.558Z,63.07
2018-07-22T21:18:27.778Z,64.80
2018-07-22T21:20:56.021Z,71.53
2018-07-22T21:23:24.247Z,61.30
2018-07-22T21:25:52.484Z,74.57
2018-07-22T21:28:20.703Z,74.73
2018-07-22T21:30:48.935Z,80.23
2018-07-22T21:33:17.142Z,83.47
2018-07-22T21:35:45.444Z,101.07
2018-07-22T21:38:13.678Z,74.73
2018-07-22T21:40:41.916Z,88.27
2018-07-22T21:43:10.211Z,84.77
2018-07-22T21:45:38.574Z,88.73
2018-07-22T21:48:06.894Z,94.17
2018-07-22T21:50:35.130Z,84.97
2018-07-22T21:53:03.374Z,94.27
2018-07-22T21:55:31.585Z,77.90
2018-07-22T21:57:59.815Z,97.23
2018-07-22T22:00:33.666Z,81.47
2018-07-22T22:03:02.995Z,78.70
2018-07-22T22:05:31.238Z,82.30
2018-07-22T22:07:59.532Z,71.97
2018-07-22T22:10:27.970Z,70.80
2018-07-22T22:12:56.454Z,77.10
2018-07-22T22:15:31.818Z,72.23
2018-07-22T22:18:03.270Z,68.63
2018-07-22T22:20:31.882Z,81.67
2018-07-22T22:23:00.139Z,89.60
2018-07-22T22:25:28.346Z,69.83
2018-07-22T22:27:56.602Z,76.73
2018-07-22T22:30:24.859Z,74.57
2018-07-22T22:32:53.103Z,85.20
2018-07-22T22:35:21.399Z,154.27
2018-07-22T22:37:49.670Z,155.17
2018-07-22T22:40:17.903Z,156.57
2018-07-22T22:42:46.999Z,130.63
2018-07-22T22:45:15.683Z,114.20
2018-07-22T22:47:43.975Z,126.40
2018-07-22T22:50:12.259Z,111.53
2018-07-22T22:52:40.525Z,117.77
2018-07-22T22:55:08.959Z,124.57
2018-07-22T22:57:37.219Z,103.57
2018-07-22T23:00:05.938Z,126.00
2018-07-22T23:02:37.123Z,107.47
2018-07-22T23:05:06.851Z,132.40
2018-07-22T23:07:35.167Z,142.93
2018-07-22T23:10:03.784Z,175.57
2018-07-22T23:12:32.047Z,166.90
2018-07-22T23:15:00.390Z,167.30
2018-07-22T23:17:28.647Z,165.93
2018-07-22T23:19:56.907Z,140.57
2018-07-22T23:22:25.135Z,144.33
2018-07-22T23:24:53.384Z,124.63
2018-07-22T23:27:21.597Z,104.77
2018-07-22T23:29:49.888Z,105.47
2018-07-22T23:32:18.123Z,109.20
2018-07-22T23:34:46.358Z,109.23
2018-07-22T23:37:14.611Z,105.67
2018-07-22T23:39:42.859Z,109.83
2018-07-22T23:42:11.086Z,90.73
2018-07-22T23:44:39.333Z,100.67
2018-07-22T23:47:07.542Z,96.37
2018-07-22T23:49:35.778Z,97.30
2018-07-22T23:52:03.998Z,91.93
2018-07-22T23:54:32.231Z,85.47
2018-07-22T23:57:00.454Z,86.27
2018-07-22T23:59:28.666Z,94.00
